Terminal Aerodrome Forecast
Issued by NWS

Home | Current Version | Previous Version | Text Only | Print | Product List | Glossary On
Versions: 1 2 3 4 5 6 7 8 9 10 11 12 13 14 15 16 17
000
FTUS45 KTFX 272341
TAFGTF
TAF
KGTF 272341Z 2800/2824 24011KT 5SM FU BKN040 BKN130
     FM280200 21008KT 6SM FU SKC
     FM281900 22011KT 5SM FU SCT040 SCT110=

USA.gov is the U.S. government's official web portal to all federal, state and local government web resources and services.